sensor_id;sensor_type;location;lat;lon;timestamp;P1;durP1;ratioP1;P2;durP2;ratioP2
54145;SDS011;65909;49.422;7.738;2023-07-29T00:01:42;3.90;;;3.50;;
54145;SDS011;65909;49.422;7.738;2023-07-29T00:04:08;5.20;;;3.90;;
54145;SDS011;65909;49.422;7.738;2023-07-29T00:06:34;4.60;;;3.58;;
54145;SDS011;65909;49.422;7.738;2023-07-29T00:08:59;6.10;;;4.13;;
54145;SDS011;65909;49.422;7.738;2023-07-29T00:11:24;6.10;;;4.50;;
54145;SDS011;65909;49.422;7.738;2023-07-29T00:13:49;7.23;;;4.10;;
54145;SDS011;65909;49.422;7.738;2023-07-29T00:16:16;9.27;;;4.90;;
54145;SDS011;65909;49.422;7.738;2023-07-29T00:18:42;6.22;;;4.40;;
54145;SDS011;65909;49.422;7.738;2023-07-29T00:21:07;8.67;;;5.53;;
54145;SDS011;65909;49.422;7.738;2023-07-29T00:23:32;6.78;;;5.25;;
54145;SDS011;65909;49.422;7.738;2023-07-29T00:25:57;6.53;;;4.90;;
54145;SDS011;65909;49.422;7.738;2023-07-29T00:28:23;8.40;;;5.20;;
54145;SDS011;65909;49.422;7.738;2023-07-29T00:30:48;6.53;;;5.00;;
54145;SDS011;65909;49.422;7.738;2023-07-29T00:33:13;7.37;;;5.50;;
54145;SDS011;65909;49.422;7.738;2023-07-29T00:35:38;8.40;;;5.87;;
54145;SDS011;65909;49.422;7.738;2023-07-29T00:38:03;9.33;;;6.37;;
54145;SDS011;65909;49.422;7.738;2023-07-29T00:40:28;9.77;;;6.03;;
54145;SDS011;65909;49.422;7.738;2023-07-29T00:42:54;11.40;;;6.78;;
54145;SDS011;65909;49.422;7.738;2023-07-29T00:45:19;8.23;;;6.30;;
54145;SDS011;65909;49.422;7.738;2023-07-29T00:47:45;8.18;;;6.22;;
54145;SDS011;65909;49.422;7.738;2023-07-29T00:50:11;7.68;;;5.72;;
54145;SDS011;65909;49.422;7.738;2023-07-29T00:52:36;8.63;;;6.13;;
54145;SDS011;65909;49.422;7.738;2023-07-29T00:55:02;9.45;;;6.30;;
54145;SDS011;65909;49.422;7.738;2023-07-29T00:57:28;8.02;;;5.75;;
54145;SDS011;65909;49.422;7.738;2023-07-29T00:59:54;7.32;;;6.10;;
54145;SDS011;65909;49.422;7.738;2023-07-29T01:02:19;8.45;;;5.68;;
54145;SDS011;65909;49.422;7.738;2023-07-29T01:04:44;8.77;;;6.27;;
54145;SDS011;65909;49.422;7.738;2023-07-29T01:07:14;5.63;;;4.97;;
54145;SDS011;65909;49.422;7.738;2023-07-29T01:12:20;7.60;;;5.32;;
54145;SDS011;65909;49.422;7.738;2023-07-29T01:17:26;5.63;;;5.03;;
54145;SDS011;65909;49.422;7.738;2023-07-29T01:20:00;5.38;;;4.68;;
54145;SDS011;65909;49.422;7.738;2023-07-29T01:22:28;5.43;;;4.65;;
54145;SDS011;65909;49.422;7.738;2023-07-29T01:24:54;6.50;;;5.18;;
54145;SDS011;65909;49.422;7.738;2023-07-29T01:27:19;7.67;;;5.00;;
54145;SDS011;65909;49.422;7.738;2023-07-29T01:29:45;8.30;;;5.20;;
54145;SDS011;65909;49.422;7.738;2023-07-29T01:32:14;6.83;;;5.07;;
54145;SDS011;65909;49.422;7.738;2023-07-29T01:34:47;6.47;;;4.70;;
54145;SDS011;65909;49.422;7.738;2023-07-29T01:37:15;5.60;;;4.80;;
54145;SDS011;65909;49.422;7.738;2023-07-29T01:39:43;12.68;;;4.70;;
54145;SDS011;65909;49.422;7.738;2023-07-29T01:42:10;7.88;;;4.32;;
54145;SDS011;65909;49.422;7.738;2023-07-29T01:44:35;4.63;;;3.63;;
54145;SDS011;65909;49.422;7.738;2023-07-29T01:47:01;5.82;;;4.32;;
54145;SDS011;65909;49.422;7.738;2023-07-29T01:49:26;5.27;;;3.43;;
54145;SDS011;65909;49.422;7.738;2023-07-29T01:51:51;6.77;;;4.63;;
54145;SDS011;65909;49.422;7.738;2023-07-29T01:54:16;4.10;;;3.37;;
54145;SDS011;65909;49.422;7.738;2023-07-29T01:56:42;4.00;;;3.17;;
54145;SDS011;65909;49.422;7.738;2023-07-29T01:59:07;4.20;;;3.60;;
54145;SDS011;65909;49.422;7.738;2023-07-29T02:01:32;4.73;;;3.67;;
54145;SDS011;65909;49.422;7.738;2023-07-29T02:03:57;4.40;;;3.50;;
54145;SDS011;65909;49.422;7.738;2023-07-29T02:06:22;3.77;;;3.00;;
54145;SDS011;65909;49.422;7.738;2023-07-29T02:08:48;4.97;;;3.03;;
54145;SDS011;65909;49.422;7.738;2023-07-29T02:11:13;3.63;;;3.13;;
54145;SDS011;65909;49.422;7.738;2023-07-29T02:13:38;4.23;;;2.93;;
54145;SDS011;65909;49.422;7.738;2023-07-29T02:16:03;5.40;;;3.40;;
54145;SDS011;65909;49.422;7.738;2023-07-29T02:18:28;3.22;;;2.70;;
54145;SDS011;65909;49.422;7.738;2023-07-29T02:20:54;5.27;;;3.10;;
54145;SDS011;65909;49.422;7.738;2023-07-29T02:23:19;3.97;;;2.83;;
54145;SDS011;65909;49.422;7.738;2023-07-29T02:25:44;5.73;;;3.13;;
54145;SDS011;65909;49.422;7.738;2023-07-29T02:28:09;5.13;;;3.10;;
54145;SDS011;65909;49.422;7.738;2023-07-29T02:30:34;4.23;;;2.87;;
54145;SDS011;65909;49.422;7.738;2023-07-29T02:32:59;3.17;;;2.70;;
54145;SDS011;65909;49.422;7.738;2023-07-29T02:35:26;4.93;;;3.17;;
54145;SDS011;65909;49.422;7.738;2023-07-29T02:37:51;3.72;;;3.03;;
54145;SDS011;65909;49.422;7.738;2023-07-29T02:40:19;3.40;;;3.00;;
54145;SDS011;65909;49.422;7.738;2023-07-29T02:42:45;4.75;;;2.90;;
54145;SDS011;65909;49.422;7.738;2023-07-29T02:45:11;4.25;;;2.95;;
54145;SDS011;65909;49.422;7.738;2023-07-29T02:47:37;3.60;;;2.60;;
54145;SDS011;65909;49.422;7.738;2023-07-29T02:50:02;4.30;;;2.63;;
54145;SDS011;65909;49.422;7.738;2023-07-29T02:52:27;4.33;;;3.00;;
54145;SDS011;65909;49.422;7.738;2023-07-29T02:54:52;3.40;;;2.93;;
54145;SDS011;65909;49.422;7.738;2023-07-29T02:57:17;4.50;;;3.10;;
54145;SDS011;65909;49.422;7.738;2023-07-29T02:59:43;4.10;;;3.30;;
54145;SDS011;65909;49.422;7.738;2023-07-29T03:02:08;5.00;;;3.70;;
54145;SDS011;65909;49.422;7.738;2023-07-29T03:04:33;7.57;;;4.17;;
54145;SDS011;65909;49.422;7.738;2023-07-29T03:06:58;4.83;;;4.10;;
54145;SDS011;65909;49.422;7.738;2023-07-29T03:09:24;5.65;;;4.47;;
54145;SDS011;65909;49.422;7.738;2023-07-29T03:11:50;8.73;;;4.60;;
54145;SDS011;65909;49.422;7.738;2023-07-29T03:14:17;6.95;;;4.88;;
54145;SDS011;65909;49.422;7.738;2023-07-29T03:16:42;6.37;;;4.90;;
54145;SDS011;65909;49.422;7.738;2023-07-29T03:19:08;6.57;;;5.03;;
54145;SDS011;65909;49.422;7.738;2023-07-29T03:21:33;5.83;;;5.20;;
54145;SDS011;65909;49.422;7.738;2023-07-29T03:23:58;10.00;;;5.00;;
54145;SDS011;65909;49.422;7.738;2023-07-29T03:26:23;7.17;;;5.60;;
54145;SDS011;65909;49.422;7.738;2023-07-29T03:28:48;8.57;;;5.87;;
54145;SDS011;65909;49.422;7.738;2023-07-29T03:31:13;8.27;;;5.50;;
54145;SDS011;65909;49.422;7.738;2023-07-29T03:33:39;7.13;;;5.33;;
54145;SDS011;65909;49.422;7.738;2023-07-29T03:36:04;11.33;;;6.87;;
54145;SDS011;65909;49.422;7.738;2023-07-29T03:38:29;9.50;;;6.60;;
54145;SDS011;65909;49.422;7.738;2023-07-29T03:40:55;9.27;;;6.27;;
54145;SDS011;65909;49.422;7.738;2023-07-29T03:43:20;8.47;;;5.77;;
54145;SDS011;65909;49.422;7.738;2023-07-29T03:45:45;8.77;;;5.97;;
54145;SDS011;65909;49.422;7.738;2023-07-29T03:48:10;9.90;;;5.60;;
54145;SDS011;65909;49.422;7.738;2023-07-29T03:50:35;9.53;;;5.43;;
54145;SDS011;65909;49.422;7.738;2023-07-29T03:53:01;9.40;;;6.38;;
54145;SDS011;65909;49.422;7.738;2023-07-29T03:55:27;7.72;;;5.43;;
54145;SDS011;65909;49.422;7.738;2023-07-29T03:57:52;9.20;;;7.00;;
54145;SDS011;65909;49.422;7.738;2023-07-29T04:00:17;9.93;;;6.57;;
54145;SDS011;65909;49.422;7.738;2023-07-29T04:02:43;11.35;;;7.35;;
54145;SDS011;65909;49.422;7.738;2023-07-29T04:05:10;9.82;;;6.70;;
54145;SDS011;65909;49.422;7.738;2023-07-29T04:07:35;8.27;;;7.00;;
54145;SDS011;65909;49.422;7.738;2023-07-29T04:10:01;8.68;;;5.78;;
54145;SDS011;65909;49.422;7.738;2023-07-29T04:12:26;9.25;;;6.90;;
54145;SDS011;65909;49.422;7.738;2023-07-29T04:14:51;8.95;;;5.53;;
54145;SDS011;65909;49.422;7.738;2023-07-29T04:17:17;9.47;;;6.57;;
54145;SDS011;65909;49.422;7.738;2023-07-29T04:19:42;8.10;;;6.00;;
54145;SDS011;65909;49.422;7.738;2023-07-29T04:22:07;7.63;;;6.30;;
54145;SDS011;65909;49.422;7.738;2023-07-29T04:24:32;10.07;;;6.27;;
54145;SDS011;65909;49.422;7.738;2023-07-29T04:26:57;7.40;;;5.95;;
54145;SDS011;65909;49.422;7.738;2023-07-29T04:29:23;9.93;;;5.77;;
54145;SDS011;65909;49.422;7.738;2023-07-29T04:31:49;6.73;;;5.77;;
54145;SDS011;65909;49.422;7.738;2023-07-29T04:34:14;6.85;;;5.00;;
54145;SDS011;65909;49.422;7.738;2023-07-29T04:36:39;10.40;;;5.70;;
54145;SDS011;65909;49.422;7.738;2023-07-29T04:39:04;10.57;;;6.27;;
54145;SDS011;65909;49.422;7.738;2023-07-29T04:41:30;7.00;;;5.05;;
54145;SDS011;65909;49.422;7.738;2023-07-29T04:43:55;7.20;;;5.50;;
54145;SDS011;65909;49.422;7.738;2023-07-29T04:46:20;6.97;;;5.87;;
54145;SDS011;65909;49.422;7.738;2023-07-29T04:48:45;12.07;;;5.97;;
54145;SDS011;65909;49.422;7.738;2023-07-29T04:51:10;9.70;;;5.53;;
54145;SDS011;65909;49.422;7.738;2023-07-29T04:53:36;8.20;;;5.70;;
54145;SDS011;65909;49.422;7.738;2023-07-29T04:56:01;6.85;;;5.35;;
54145;SDS011;65909;49.422;7.738;2023-07-29T04:58:27;8.70;;;6.00;;
54145;SDS011;65909;49.422;7.738;2023-07-29T05:00:54;7.05;;;6.05;;
54145;SDS011;65909;49.422;7.738;2023-07-29T05:03:19;8.03;;;6.33;;
54145;SDS011;65909;49.422;7.738;2023-07-29T05:05:45;9.10;;;6.57;;
54145;SDS011;65909;49.422;7.738;2023-07-29T05:08:10;8.07;;;6.90;;
54145;SDS011;65909;49.422;7.738;2023-07-29T05:10:35;7.57;;;6.17;;
54145;SDS011;65909;49.422;7.738;2023-07-29T05:13:00;8.55;;;6.63;;
54145;SDS011;65909;49.422;7.738;2023-07-29T05:15:26;7.00;;;6.10;;
54145;SDS011;65909;49.422;7.738;2023-07-29T05:17:51;7.70;;;6.90;;
54145;SDS011;65909;49.422;7.738;2023-07-29T05:20:16;8.53;;;5.97;;
54145;SDS011;65909;49.422;7.738;2023-07-29T05:22:41;8.10;;;6.63;;
54145;SDS011;65909;49.422;7.738;2023-07-29T05:25:07;12.23;;;6.70;;
54145;SDS011;65909;49.422;7.738;2023-07-29T05:27:32;9.70;;;6.75;;
54145;SDS011;65909;49.422;7.738;2023-07-29T05:29:57;10.57;;;7.22;;
54145;SDS011;65909;49.422;7.738;2023-07-29T05:32:23;9.70;;;8.27;;
54145;SDS011;65909;49.422;7.738;2023-07-29T05:34:48;11.07;;;8.47;;
54145;SDS011;65909;49.422;7.738;2023-07-29T05:37:13;14.40;;;9.87;;
54145;SDS011;65909;49.422;7.738;2023-07-29T05:39:38;12.07;;;9.57;;
54145;SDS011;65909;49.422;7.738;2023-07-29T05:42:03;11.17;;;9.60;;
54145;SDS011;65909;49.422;7.738;2023-07-29T05:44:29;12.35;;;9.02;;
54145;SDS011;65909;49.422;7.738;2023-07-29T05:46:55;12.45;;;9.70;;
54145;SDS011;65909;49.422;7.738;2023-07-29T05:49:20;13.57;;;9.95;;
54145;SDS011;65909;49.422;7.738;2023-07-29T05:51:46;15.37;;;11.17;;
54145;SDS011;65909;49.422;7.738;2023-07-29T05:54:11;14.23;;;10.20;;
54145;SDS011;65909;49.422;7.738;2023-07-29T05:56:36;12.77;;;9.53;;
54145;SDS011;65909;49.422;7.738;2023-07-29T05:59:01;11.90;;;9.80;;
54145;SDS011;65909;49.422;7.738;2023-07-29T06:01:26;11.27;;;9.50;;
54145;SDS011;65909;49.422;7.738;2023-07-29T06:03:51;13.77;;;8.43;;
54145;SDS011;65909;49.422;7.738;2023-07-29T06:06:17;12.65;;;9.27;;
54145;SDS011;65909;49.422;7.738;2023-07-29T06:08:42;10.65;;;8.65;;
54145;SDS011;65909;49.422;7.738;2023-07-29T06:11:07;10.80;;;8.70;;
54145;SDS011;65909;49.422;7.738;2023-07-29T06:13:32;8.47;;;7.23;;
54145;SDS011;65909;49.422;7.738;2023-07-29T06:15:58;7.90;;;6.90;;
54145;SDS011;65909;49.422;7.738;2023-07-29T06:18:24;8.93;;;7.17;;
54145;SDS011;65909;49.422;7.738;2023-07-29T06:20:49;10.20;;;6.93;;
54145;SDS011;65909;49.422;7.738;2023-07-29T06:23:15;9.77;;;7.57;;
54145;SDS011;65909;49.422;7.738;2023-07-29T06:25:40;8.40;;;6.68;;
54145;SDS011;65909;49.422;7.738;2023-07-29T06:28:05;11.13;;;7.93;;
54145;SDS011;65909;49.422;7.738;2023-07-29T06:30:30;8.87;;;7.63;;
54145;SDS011;65909;49.422;7.738;2023-07-29T06:32:56;8.20;;;7.15;;
54145;SDS011;65909;49.422;7.738;2023-07-29T06:35:21;11.03;;;8.73;;
54145;SDS011;65909;49.422;7.738;2023-07-29T06:37:46;7.82;;;7.03;;
54145;SDS011;65909;49.422;7.738;2023-07-29T06:40:12;11.93;;;8.30;;
54145;SDS011;65909;49.422;7.738;2023-07-29T06:42:37;13.27;;;9.00;;
54145;SDS011;65909;49.422;7.738;2023-07-29T06:45:03;13.68;;;9.93;;
54145;SDS011;65909;49.422;7.738;2023-07-29T06:47:28;15.65;;;9.75;;
54145;SDS011;65909;49.422;7.738;2023-07-29T06:49:53;18.20;;;10.13;;
54145;SDS011;65909;49.422;7.738;2023-07-29T06:52:18;14.30;;;10.80;;
54145;SDS011;65909;49.422;7.738;2023-07-29T06:54:44;14.43;;;10.77;;
54145;SDS011;65909;49.422;7.738;2023-07-29T06:57:09;20.07;;;10.70;;
54145;SDS011;65909;49.422;7.738;2023-07-29T06:59:34;15.43;;;10.60;;
54145;SDS011;65909;49.422;7.738;2023-07-29T07:01:59;15.47;;;10.43;;
54145;SDS011;65909;49.422;7.738;2023-07-29T07:04:25;18.50;;;11.27;;
54145;SDS011;65909;49.422;7.738;2023-07-29T07:06:50;15.50;;;10.90;;
54145;SDS011;65909;49.422;7.738;2023-07-29T07:09:15;14.73;;;10.93;;
54145;SDS011;65909;49.422;7.738;2023-07-29T07:11:40;13.23;;;8.87;;
54145;SDS011;65909;49.422;7.738;2023-07-29T07:14:06;19.57;;;11.20;;
54145;SDS011;65909;49.422;7.738;2023-07-29T07:16:31;11.53;;;9.03;;
54145;SDS011;65909;49.422;7.738;2023-07-29T07:18:56;13.47;;;9.07;;
54145;SDS011;65909;49.422;7.738;2023-07-29T07:21:21;13.55;;;7.60;;
54145;SDS011;65909;49.422;7.738;2023-07-29T07:23:48;11.63;;;7.87;;
54145;SDS011;65909;49.422;7.738;2023-07-29T07:26:14;16.17;;;8.75;;
54145;SDS011;65909;49.422;7.738;2023-07-29T07:28:39;13.80;;;8.23;;
54145;SDS011;65909;49.422;7.738;2023-07-29T07:31:04;12.03;;;7.67;;
54145;SDS011;65909;49.422;7.738;2023-07-29T07:33:29;13.33;;;7.57;;
54145;SDS011;65909;49.422;7.738;2023-07-29T07:35:54;11.93;;;7.57;;
54145;SDS011;65909;49.422;7.738;2023-07-29T07:38:19;12.47;;;7.03;;
54145;SDS011;65909;49.422;7.738;2023-07-29T07:40:54;10.93;;;7.60;;
54145;SDS011;65909;49.422;7.738;2023-07-29T07:43:20;11.85;;;7.68;;
54145;SDS011;65909;49.422;7.738;2023-07-29T07:45:45;20.23;;;9.40;;
54145;SDS011;65909;49.422;7.738;2023-07-29T07:48:10;11.33;;;8.17;;
54145;SDS011;65909;49.422;7.738;2023-07-29T07:50:37;19.70;;;11.50;;
54145;SDS011;65909;49.422;7.738;2023-07-29T07:53:03;21.53;;;10.80;;
54145;SDS011;65909;49.422;7.738;2023-07-29T07:55:28;19.00;;;11.47;;
54145;SDS011;65909;49.422;7.738;2023-07-29T07:57:53;20.57;;;11.50;;
54145;SDS011;65909;49.422;7.738;2023-07-29T08:00:18;22.93;;;12.33;;
54145;SDS011;65909;49.422;7.738;2023-07-29T08:02:44;22.90;;;12.23;;
54145;SDS011;65909;49.422;7.738;2023-07-29T08:05:10;26.37;;;13.03;;
54145;SDS011;65909;49.422;7.738;2023-07-29T08:07:35;22.00;;;13.17;;
54145;SDS011;65909;49.422;7.738;2023-07-29T08:10:00;22.40;;;12.47;;
54145;SDS011;65909;49.422;7.738;2023-07-29T08:12:25;20.37;;;11.07;;
54145;SDS011;65909;49.422;7.738;2023-07-29T08:14:50;22.93;;;12.57;;
54145;SDS011;65909;49.422;7.738;2023-07-29T08:17:15;22.63;;;12.53;;
54145;SDS011;65909;49.422;7.738;2023-07-29T08:19:41;20.07;;;11.70;;
54145;SDS011;65909;49.422;7.738;2023-07-29T08:22:06;25.13;;;13.13;;
54145;SDS011;65909;49.422;7.738;2023-07-29T08:24:31;19.60;;;12.13;;
54145;SDS011;65909;49.422;7.738;2023-07-29T08:26:56;20.90;;;11.70;;
54145;SDS011;65909;49.422;7.738;2023-07-29T08:29:21;20.07;;;13.70;;
54145;SDS011;65909;49.422;7.738;2023-07-29T08:31:46;19.90;;;12.03;;
54145;SDS011;65909;49.422;7.738;2023-07-29T08:34:12;13.67;;;11.00;;
54145;SDS011;65909;49.422;7.738;2023-07-29T08:36:37;13.90;;;11.20;;
54145;SDS011;65909;49.422;7.738;2023-07-29T08:39:02;14.60;;;9.83;;
54145;SDS011;65909;49.422;7.738;2023-07-29T08:41:32;14.73;;;9.40;;
54145;SDS011;65909;49.422;7.738;2023-07-29T08:44:06;10.07;;;8.55;;
54145;SDS011;65909;49.422;7.738;2023-07-29T08:46:34;9.70;;;8.27;;
54145;SDS011;65909;49.422;7.738;2023-07-29T08:48:59;7.27;;;6.60;;
54145;SDS011;65909;49.422;7.738;2023-07-29T08:51:26;8.55;;;5.68;;
54145;SDS011;65909;49.422;7.738;2023-07-29T08:53:52;7.30;;;5.90;;
54145;SDS011;65909;49.422;7.738;2023-07-29T08:56:17;6.57;;;5.47;;
54145;SDS011;65909;49.422;7.738;2023-07-29T08:58:42;6.47;;;4.77;;
54145;SDS011;65909;49.422;7.738;2023-07-29T09:01:08;6.07;;;4.22;;
54145;SDS011;65909;49.422;7.738;2023-07-29T09:03:33;8.00;;;4.60;;
54145;SDS011;65909;49.422;7.738;2023-07-29T09:05:58;5.13;;;3.80;;
54145;SDS011;65909;49.422;7.738;2023-07-29T09:08:25;4.43;;;3.65;;
54145;SDS011;65909;49.422;7.738;2023-07-29T09:10:50;4.53;;;3.58;;
54145;SDS011;65909;49.422;7.738;2023-07-29T09:13:16;4.40;;;3.40;;
54145;SDS011;65909;49.422;7.738;2023-07-29T09:15:41;3.07;;;2.77;;
54145;SDS011;65909;49.422;7.738;2023-07-29T09:18:11;3.65;;;2.63;;
54145;SDS011;65909;49.422;7.738;2023-07-29T09:20:36;3.25;;;2.95;;
54145;SDS011;65909;49.422;7.738;2023-07-29T09:23:02;2.65;;;2.45;;
54145;SDS011;65909;49.422;7.738;2023-07-29T09:25:28;3.73;;;2.77;;
54145;SDS011;65909;49.422;7.738;2023-07-29T09:27:58;2.33;;;2.13;;
54145;SDS011;65909;49.422;7.738;2023-07-29T09:30:24;2.00;;;1.80;;
54145;SDS011;65909;49.422;7.738;2023-07-29T09:32:54;3.17;;;1.80;;
54145;SDS011;65909;49.422;7.738;2023-07-29T09:35:19;2.10;;;1.90;;
54145;SDS011;65909;49.422;7.738;2023-07-29T09:37:44;2.30;;;2.07;;
54145;SDS011;65909;49.422;7.738;2023-07-29T09:40:13;3.10;;;2.23;;
54145;SDS011;65909;49.422;7.738;2023-07-29T09:42:39;2.65;;;1.73;;
54145;SDS011;65909;49.422;7.738;2023-07-29T09:45:04;1.80;;;1.50;;
54145;SDS011;65909;49.422;7.738;2023-07-29T09:47:29;1.55;;;1.25;;
54145;SDS011;65909;49.422;7.738;2023-07-29T09:49:54;1.57;;;1.30;;
54145;SDS011;65909;49.422;7.738;2023-07-29T09:52:20;3.20;;;1.50;;
54145;SDS011;65909;49.422;7.738;2023-07-29T09:54:46;2.17;;;1.60;;
54145;SDS011;65909;49.422;7.738;2023-07-29T09:57:13;1.55;;;1.40;;
54145;SDS011;65909;49.422;7.738;2023-07-29T09:59:38;1.45;;;1.30;;
54145;SDS011;65909;49.422;7.738;2023-07-29T10:02:03;1.90;;;1.30;;
54145;SDS011;65909;49.422;7.738;2023-07-29T10:04:29;1.23;;;1.00;;
54145;SDS011;65909;49.422;7.738;2023-07-29T10:06:54;1.10;;;1.00;;
54145;SDS011;65909;49.422;7.738;2023-07-29T10:09:20;0.95;;;0.90;;
54145;SDS011;65909;49.422;7.738;2023-07-29T10:11:45;1.70;;;1.02;;
54145;SDS011;65909;49.422;7.738;2023-07-29T10:14:10;1.70;;;1.17;;
54145;SDS011;65909;49.422;7.738;2023-07-29T10:16:36;0.93;;;0.83;;
54145;SDS011;65909;49.422;7.738;2023-07-29T10:19:01;1.20;;;0.80;;
54145;SDS011;65909;49.422;7.738;2023-07-29T10:21:26;1.63;;;0.90;;
54145;SDS011;65909;49.422;7.738;2023-07-29T10:23:53;2.35;;;0.90;;
54145;SDS011;65909;49.422;7.738;2023-07-29T10:26:20;1.05;;;0.80;;
54145;SDS011;65909;49.422;7.738;2023-07-29T10:28:46;1.00;;;0.80;;
54145;SDS011;65909;49.422;7.738;2023-07-29T10:31:11;1.85;;;0.80;;
54145;SDS011;65909;49.422;7.738;2023-07-29T10:33:37;1.30;;;0.82;;
54145;SDS011;65909;49.422;7.738;2023-07-29T10:36:03;1.00;;;0.90;;
54145;SDS011;65909;49.422;7.738;2023-07-29T10:38:29;1.90;;;0.73;;
54145;SDS011;65909;49.422;7.738;2023-07-29T10:40:55;1.80;;;0.98;;
54145;SDS011;65909;49.422;7.738;2023-07-29T10:43:26;1.25;;;1.10;;
54145;SDS011;65909;49.422;7.738;2023-07-29T10:45:51;1.00;;;0.80;;
54145;SDS011;65909;49.422;7.738;2023-07-29T10:53:41;1.30;;;1.00;;
54145;SDS011;65909;49.422;7.738;2023-07-29T10:56:06;3.07;;;1.50;;
54145;SDS011;65909;49.422;7.738;2023-07-29T10:58:31;1.30;;;0.90;;
54145;SDS011;65909;49.422;7.738;2023-07-29T11:00:56;2.80;;;1.20;;
54145;SDS011;65909;49.422;7.738;2023-07-29T11:03:21;2.00;;;1.33;;
54145;SDS011;65909;49.422;7.738;2023-07-29T11:05:52;1.80;;;1.00;;
54145;SDS011;65909;49.422;7.738;2023-07-29T11:08:18;1.27;;;1.02;;
54145;SDS011;65909;49.422;7.738;2023-07-29T11:10:44;1.77;;;1.10;;
54145;SDS011;65909;49.422;7.738;2023-07-29T11:13:22;1.58;;;1.08;;
54145;SDS011;65909;49.422;7.738;2023-07-29T11:15:47;0.80;;;0.80;;
54145;SDS011;65909;49.422;7.738;2023-07-29T11:18:12;1.50;;;1.02;;
54145;SDS011;65909;49.422;7.738;2023-07-29T11:20:40;3.17;;;1.00;;
54145;SDS011;65909;49.422;7.738;2023-07-29T11:23:05;1.37;;;1.07;;
54145;SDS011;65909;49.422;7.738;2023-07-29T11:25:31;1.65;;;0.90;;
54145;SDS011;65909;49.422;7.738;2023-07-29T11:27:57;1.73;;;0.77;;
54145;SDS011;65909;49.422;7.738;2023-07-29T11:30:23;1.15;;;1.00;;
54145;SDS011;65909;49.422;7.738;2023-07-29T11:32:48;1.58;;;0.98;;
54145;SDS011;65909;49.422;7.738;2023-07-29T11:35:14;2.05;;;1.27;;
54145;SDS011;65909;49.422;7.738;2023-07-29T11:37:40;1.60;;;1.00;;
54145;SDS011;65909;49.422;7.738;2023-07-29T11:40:06;1.52;;;1.00;;
54145;SDS011;65909;49.422;7.738;2023-07-29T11:42:34;1.70;;;0.98;;
54145;SDS011;65909;49.422;7.738;2023-07-29T11:45:00;1.10;;;0.80;;
54145;SDS011;65909;49.422;7.738;2023-07-29T11:47:26;1.38;;;0.93;;
54145;SDS011;65909;49.422;7.738;2023-07-29T11:49:51;2.35;;;1.10;;
54145;SDS011;65909;49.422;7.738;2023-07-29T11:52:16;0.95;;;0.80;;
54145;SDS011;65909;49.422;7.738;2023-07-29T11:54:44;1.65;;;0.93;;
54145;SDS011;65909;49.422;7.738;2023-07-29T11:57:10;1.48;;;0.93;;
54145;SDS011;65909;49.422;7.738;2023-07-29T11:59:36;2.53;;;1.10;;
54145;SDS011;65909;49.422;7.738;2023-07-29T12:02:01;1.35;;;1.10;;
54145;SDS011;65909;49.422;7.738;2023-07-29T12:04:28;1.20;;;1.05;;
54145;SDS011;65909;49.422;7.738;2023-07-29T12:06:53;0.93;;;0.75;;
54145;SDS011;65909;49.422;7.738;2023-07-29T12:09:18;1.00;;;0.90;;
54145;SDS011;65909;49.422;7.738;2023-07-29T12:11:44;1.42;;;1.00;;
54145;SDS011;65909;49.422;7.738;2023-07-29T12:14:09;1.67;;;1.00;;
54145;SDS011;65909;49.422;7.738;2023-07-29T12:16:44;0.90;;;0.80;;
54145;SDS011;65909;49.422;7.738;2023-07-29T12:19:12;1.55;;;1.27;;
54145;SDS011;65909;49.422;7.738;2023-07-29T12:21:38;1.40;;;0.98;;
54145;SDS011;65909;49.422;7.738;2023-07-29T12:24:05;1.23;;;0.90;;
54145;SDS011;65909;49.422;7.738;2023-07-29T12:26:30;1.17;;;1.00;;
54145;SDS011;65909;49.422;7.738;2023-07-29T12:28:55;1.10;;;1.00;;
54145;SDS011;65909;49.422;7.738;2023-07-29T12:31:21;1.50;;;1.00;;
54145;SDS011;65909;49.422;7.738;2023-07-29T12:33:46;1.60;;;1.00;;
54145;SDS011;65909;49.422;7.738;2023-07-29T12:36:12;2.97;;;1.10;;
54145;SDS011;65909;49.422;7.738;2023-07-29T12:38:37;1.67;;;1.00;;
54145;SDS011;65909;49.422;7.738;2023-07-29T12:41:02;1.40;;;1.00;;
54145;SDS011;65909;49.422;7.738;2023-07-29T12:43:27;1.90;;;1.20;;
54145;SDS011;65909;49.422;7.738;2023-07-29T12:45:52;1.40;;;1.20;;
54145;SDS011;65909;49.422;7.738;2023-07-29T12:48:18;2.20;;;1.27;;
54145;SDS011;65909;49.422;7.738;2023-07-29T12:50:43;1.07;;;0.90;;
54145;SDS011;65909;49.422;7.738;2023-07-29T12:53:08;1.25;;;0.93;;
54145;SDS011;65909;49.422;7.738;2023-07-29T12:55:37;1.55;;;1.10;;
54145;SDS011;65909;49.422;7.738;2023-07-29T12:58:02;2.33;;;1.20;;
54145;SDS011;65909;49.422;7.738;2023-07-29T13:00:27;2.05;;;1.15;;
54145;SDS011;65909;49.422;7.738;2023-07-29T13:02:53;2.05;;;1.10;;
54145;SDS011;65909;49.422;7.738;2023-07-29T13:05:18;1.80;;;1.10;;
54145;SDS011;65909;49.422;7.738;2023-07-29T13:07:43;4.03;;;1.30;;
54145;SDS011;65909;49.422;7.738;2023-07-29T13:10:11;1.63;;;1.20;;
54145;SDS011;65909;49.422;7.738;2023-07-29T13:12:37;1.58;;;1.17;;
54145;SDS011;65909;49.422;7.738;2023-07-29T13:15:02;1.35;;;1.10;;
54145;SDS011;65909;49.422;7.738;2023-07-29T13:17:28;1.35;;;1.00;;
54145;SDS011;65909;49.422;7.738;2023-07-29T13:19:53;1.57;;;1.10;;
54145;SDS011;65909;49.422;7.738;2023-07-29T13:22:19;1.20;;;0.90;;
54145;SDS011;65909;49.422;7.738;2023-07-29T13:24:44;1.73;;;1.20;;
54145;SDS011;65909;49.422;7.738;2023-07-29T13:27:09;2.80;;;1.00;;
54145;SDS011;65909;49.422;7.738;2023-07-29T13:29:35;1.40;;;1.10;;
54145;SDS011;65909;49.422;7.738;2023-07-29T13:32:00;2.47;;;1.10;;
54145;SDS011;65909;49.422;7.738;2023-07-29T13:34:25;1.20;;;0.90;;
54145;SDS011;65909;49.422;7.738;2023-07-29T13:36:50;1.53;;;1.10;;
54145;SDS011;65909;49.422;7.738;2023-07-29T13:39:15;2.47;;;1.30;;
54145;SDS011;65909;49.422;7.738;2023-07-29T13:41:41;1.27;;;0.90;;
54145;SDS011;65909;49.422;7.738;2023-07-29T13:44:06;1.20;;;1.10;;
54145;SDS011;65909;49.422;7.738;2023-07-29T13:46:31;1.13;;;1.00;;
54145;SDS011;65909;49.422;7.738;2023-07-29T13:48:56;2.27;;;1.00;;
54145;SDS011;65909;49.422;7.738;2023-07-29T13:51:21;1.60;;;1.20;;
54145;SDS011;65909;49.422;7.738;2023-07-29T13:53:46;1.47;;;1.10;;
54145;SDS011;65909;49.422;7.738;2023-07-29T13:56:12;1.47;;;1.23;;
54145;SDS011;65909;49.422;7.738;2023-07-29T13:58:37;1.33;;;1.03;;
54145;SDS011;65909;49.422;7.738;2023-07-29T14:01:02;3.20;;;1.20;;
54145;SDS011;65909;49.422;7.738;2023-07-29T14:03:27;1.50;;;1.00;;
54145;SDS011;65909;49.422;7.738;2023-07-29T14:05:52;2.20;;;1.17;;
54145;SDS011;65909;49.422;7.738;2023-07-29T14:08:17;1.47;;;1.17;;
54145;SDS011;65909;49.422;7.738;2023-07-29T14:10:43;1.60;;;1.10;;
54145;SDS011;65909;49.422;7.738;2023-07-29T14:13:08;2.30;;;1.13;;
54145;SDS011;65909;49.422;7.738;2023-07-29T14:15:33;1.50;;;1.10;;
54145;SDS011;65909;49.422;7.738;2023-07-29T14:17:58;1.63;;;1.17;;
54145;SDS011;65909;49.422;7.738;2023-07-29T14:20:23;2.03;;;1.13;;
54145;SDS011;65909;49.422;7.738;2023-07-29T14:22:49;2.60;;;1.47;;
54145;SDS011;65909;49.422;7.738;2023-07-29T14:25:14;1.90;;;1.17;;
54145;SDS011;65909;49.422;7.738;2023-07-29T14:27:39;2.97;;;1.15;;
54145;SDS011;65909;49.422;7.738;2023-07-29T14:30:05;2.37;;;1.10;;
54145;SDS011;65909;49.422;7.738;2023-07-29T14:32:30;1.85;;;1.10;;
54145;SDS011;65909;49.422;7.738;2023-07-29T14:34:55;1.70;;;1.00;;
54145;SDS011;65909;49.422;7.738;2023-07-29T14:37:20;1.53;;;1.07;;
54145;SDS011;65909;49.422;7.738;2023-07-29T14:39:46;1.48;;;1.17;;
54145;SDS011;65909;49.422;7.738;2023-07-29T14:42:11;1.63;;;1.20;;
54145;SDS011;65909;49.422;7.738;2023-07-29T14:44:36;1.73;;;1.20;;